Observation data for Silverton on 03/12/2018      Previous  Date  Next       Current Mesonet Observations  Soil Data  Daily Summary Page  Observations in Plain Language
KSVS 120500Z 03007KT 03/M07 A3036 RMK A01 T00281070  RH  048%=      5-min Rain = 0
KSVS 120505Z 04007KT 03/M07 A3036 RMK A01 T00261070  RH  049%=      5-min Rain = 0
KSVS 120510Z 03007KT 03/M07 A3036 RMK A01 T00251070  RH  050%=      5-min Rain = 0
KSVS 120515Z 04006KT 02/M07 A3036 RMK A01 T00241070  RH  050%=      5-min Rain = 0
KSVS 120520Z 04005KT 02/M07 A3036 RMK A01 T00241070  RH  050%=      5-min Rain = 0
KSVS 120525Z 04006KT 02/M07 A3036 RMK A01 T00241070  RH  050%=      5-min Rain = 0
KSVS 120530Z 05006KT 02/M07 A3036 RMK A01 T00221071  RH  050%=      5-min Rain = 0
KSVS 120535Z 05007KT 02/M07 A3036 RMK A01 T00221070  RH  051%=      5-min Rain = 0
KSVS 120540Z 05008KT 02/M07 A3035 RMK A01 T00241066  RH  051%=      5-min Rain = 0
KSVS 120545Z 05008KT 03/M06 A3035 RMK A01 T00271064  RH  051%=      5-min Rain = 0
KSVS 120550Z 05008KT 03/M07 A3035 RMK A01 T00301065  RH  050%=      5-min Rain = 0
KSVS 120555Z 05007KT 03/M07 A3036 RMK A01 T00281067  RH  050%=      5-min Rain = 0
KSVS 120600Z 05009KT 03/M07 A3036 RMK A01 T00261067  RH  050%=      5-min Rain = 0
KSVS 120605Z 05009KT 03/M07 A3036 RMK A01 T00291065  RH  050%=      5-min Rain = 0
KSVS 120610Z 05009KT 03/M07 A3036 RMK A01 T00301065  RH  050%=      5-min Rain = 0
KSVS 120615Z 05008KT 03/M07 A3036 RMK A01 T00311065  RH  049%=      5-min Rain = 0
KSVS 120620Z 05008KT 03/M07 A3036 RMK A01 T00301065  RH  050%=      5-min Rain = 0
KSVS 120625Z 05008KT 03/M07 A3036 RMK A01 T00291065  RH  050%=      5-min Rain = 0
KSVS 120630Z 06006KT 02/M07 A3036 RMK A01 T00221069  RH  051%=      5-min Rain = 0
KSVS 120635Z 06007KT 02/M07 A3036 RMK A01 T00181067  RH  053%=      5-min Rain = 0
KSVS 120640Z 06008KT 02/M07 A3036 RMK A01 T00161066  RH  054%=      5-min Rain = 0
KSVS 120645Z 06007KT 02/M07 A3036 RMK A01 T00161065  RH  055%=      5-min Rain = 0
KSVS 120650Z 05008KT 01/M07 A3036 RMK A01 T00141066  RH  055%=      5-min Rain = 0
KSVS 120655Z 06007KT 02/M06 A3037 RMK A01 T00181063  RH  055%=      5-min Rain = 0
KSVS 120700Z 06007KT 02/M06 A3037 RMK A01 T00201062  RH  055%=      5-min Rain = 0
KSVS 120705Z 05008KT 02/M06 A3036 RMK A01 T00161064  RH  055%=      5-min Rain = 0
KSVS 120710Z 05007KT 02/M06 A3036 RMK A01 T00151062  RH  057%=      5-min Rain = 0
KSVS 120715Z 05007KT 01/M06 A3036 RMK A01 T00121063  RH  057%=      5-min Rain = 0
KSVS 120720Z 05006KT 01/M06 A3037 RMK A01 T00111064  RH  057%=      5-min Rain = 0
KSVS 120725Z 06006KT 01/M07 A3037 RMK A01 T00091065  RH  058%=      5-min Rain = 0
KSVS 120730Z 05006KT 01/M07 A3037 RMK A01 T00051069  RH  058%=      5-min Rain = 0
KSVS 120735Z 05007KT M00/M07 A3037 RMK A01 T10031072  RH  060%=      5-min Rain = 0
KSVS 120740Z 05007KT M00/M07 A3036 RMK A01 T10011067  RH  061%=      5-min Rain = 0
KSVS 120745Z 05007KT 00/M07 A3036 RMK A01 T00011065  RH  061%=      5-min Rain = 0
KSVS 120750Z 05007KT 00/M07 A3037 RMK A01 T00011069  RH  059%=      5-min Rain = 0
KSVS 120755Z 05007KT M00/M08 A3036 RMK A01 T10041075  RH  059%=      5-min Rain = 0
KSVS 120800Z 05006KT M00/M07 A3036 RMK A01 T10041073  RH  059%=      5-min Rain = 0
KSVS 120805Z 05005KT M00/M07 A3036 RMK A01 T10011072  RH  059%=      5-min Rain = 0
KSVS 120810Z 05005KT 00/M07 A3036 RMK A01 T00011067  RH  060%=      5-min Rain = 0
KSVS 120815Z 05006KT 00/M07 A3036 RMK A01 T00021065  RH  060%=      5-min Rain = 0
KSVS 120820Z 05007KT 00/M07 A3036 RMK A01 T00021066  RH  060%=      5-min Rain = 0
KSVS 120825Z 05007KT 00/M07 A3036 RMK A01 T00011070  RH  059%=      5-min Rain = 0
KSVS 120830Z 05006KT M00/M07 A3036 RMK A01 T10011069  RH  060%=      5-min Rain = 0
KSVS 120835Z 05005KT 00/M07 A3036 RMK A01 T00011066  RH  061%=      5-min Rain = 0
KSVS 120840Z 06006KT 00/M07 A3036 RMK A01 T00021066  RH  060%=      5-min Rain = 0
KSVS 120845Z 06006KT 00/M07 A3036 RMK A01 T00011069  RH  059%=      5-min Rain = 0
KSVS 120850Z 07005KT 00/M07 A3036 RMK A01 T00011068  RH  060%=      5-min Rain = 0
KSVS 120855Z 07005KT 00/M07 A3036 RMK A01 T00011068  RH  060%=      5-min Rain = 0
KSVS 120900Z 06005KT 00/M07 A3036 RMK A01 T00011067  RH  060%=      5-min Rain = 0
KSVS 120905Z 06005KT 00/M07 A3035 RMK A01 T00011067  RH  060%=      5-min Rain = 0
KSVS 120910Z 06004KT M00/M07 A3035 RMK A01 T10011068  RH  060%=      5-min Rain = 0
KSVS 120915Z 05004KT 00/07 A3035 RMK A01 T00000-67  RH  060%=      5-min Rain = 0
KSVS 120920Z 05004KT M00/M07 A3036 RMK A01 T10031066  RH  062%=      5-min Rain = 0
KSVS 120925Z 03003KT M00/M07 A3036 RMK A01 T10011067  RH  061%=      5-min Rain = 0
KSVS 120930Z 01002KT M03/M08 A3036 RMK A01 T10271083  RH  066%=      5-min Rain = 0
KSVS 120935Z 35002KT M03/M07 A3036 RMK A01 T10281073  RH  071%=      5-min Rain = 0
KSVS 120940Z 36002KT M02/M07 A3036 RMK A01 T10201068  RH  069%=      5-min Rain = 0
KSVS 120945Z 29003KT M02/M08 A3036 RMK A01 T10241079  RH  066%=      5-min Rain = 0
KSVS 120950Z 31003KT M04/M09 A3036 RMK A01 T10361087  RH  068%=      5-min Rain = 0
KSVS 120955Z 31003KT M04/M09 A3035 RMK A01 T10431089  RH  070%=      5-min Rain = 0
KSVS 121000Z 29003KT M05/M09 A3036 RMK A01 T10451092  RH  069%=      5-min Rain = 0
KSVS 121005Z 32002KT M04/M09 A3035 RMK A01 T10441093  RH  068%=      5-min Rain = 0
KSVS 121010Z 31003KT M04/M09 A3036 RMK A01 T10411094  RH  066%=      5-min Rain = 0
KSVS 121015Z 30005KT M04/M10 A3036 RMK A01 T10441095  RH  067%=      5-min Rain = 0
KSVS 121020Z 29005KT M05/M10 A3036 RMK A01 T10471096  RH  068%=      5-min Rain = 0
KSVS 121025Z 29004KT M05/M10 A3036 RMK A01 T10481095  RH  069%=      5-min Rain = 0
KSVS 121030Z 28003KT M05/M10 A3036 RMK A01 T10481096  RH  069%=      5-min Rain = 0
KSVS 121035Z 28003KT M05/M10 A3036 RMK A01 T10481096  RH  069%=      5-min Rain = 0
KSVS 121040Z 27004KT M05/M10 A3036 RMK A01 T10501098  RH  068%=      5-min Rain = 0
KSVS 121045Z 27005KT M05/M10 A3036 RMK A01 T10511096  RH  070%=      5-min Rain = 0
KSVS 121050Z 27005KT M05/M09 A3036 RMK A01 T10491092  RH  071%=      5-min Rain = 0
KSVS 121055Z 27004KT M04/M09 A3036 RMK A01 T10421088  RH  070%=      5-min Rain = 0
KSVS 121100Z 28005KT M04/M09 A3036 RMK A01 T10401090  RH  068%=      5-min Rain = 0
KSVS 121105Z 27005KT M04/M09 A3036 RMK A01 T10381086  RH  069%=      5-min Rain = 0
KSVS 121110Z 26006KT M04/M09 A3036 RMK A01 T10391087  RH  069%=      5-min Rain = 0
KSVS 121115Z 27005KT M04/M09 A3037 RMK A01 T10371088  RH  068%=      5-min Rain = 0
KSVS 121120Z 27005KT M03/M09 A3037 RMK A01 T10341089  RH  066%=      5-min Rain = 0
KSVS 121125Z 27005KT M04/M09 A3037 RMK A01 T10351088  RH  067%=      5-min Rain = 0
KSVS 121130Z 28006KT M04/M09 A3037 RMK A01 T10371087  RH  068%=      5-min Rain = 0
KSVS 121135Z 29006KT M04/M09 A3037 RMK A01 T10401086  RH  070%=      5-min Rain = 0
KSVS 121140Z 28006KT M04/M09 A3037 RMK A01 T10431093  RH  068%=      5-min Rain = 0
KSVS 121145Z 28006KT M04/M10 A3037 RMK A01 T10431096  RH  067%=      5-min Rain = 0
KSVS 121150Z 28005KT M04/M09 A3037 RMK A01 T10411090  RH  069%=      5-min Rain = 0
KSVS 121155Z 28005KT M04/M09 A3037 RMK A01 T10401088  RH  069%=      5-min Rain = 0
KSVS 121200Z 28005KT M04/M09 A3036 RMK A01 T10411089  RH  069%=      5-min Rain = 0
KSVS 121205Z 28004KT M04/M09 A3037 RMK A01 T10401088  RH  069%=      5-min Rain = 0
KSVS 121210Z 28004KT M04/M09 A3037 RMK A01 T10381089  RH  068%=      5-min Rain = 0
KSVS 121215Z 28004KT M04/M09 A3037 RMK A01 T10381090  RH  067%=      5-min Rain = 0
KSVS 121220Z 28004KT M04/M09 A3037 RMK A01 T10391091  RH  067%=      5-min Rain = 0
KSVS 121225Z 28004KT M04/M09 A3037 RMK A01 T10391092  RH  066%=      5-min Rain = 0
KSVS 121230Z 28004KT M04/M09 A3037 RMK A01 T10411093  RH  067%=      5-min Rain = 0
KSVS 121235Z 29004KT M04/M09 A3037 RMK A01 T10441093  RH  068%=      5-min Rain = 0
KSVS 121240Z 30004KT M04/M09 A3037 RMK A01 T10431092  RH  068%=      5-min Rain = 0
KSVS 121245Z 30004KT M04/M10 A3037 RMK A01 T10411095  RH  066%=      5-min Rain = 0
KSVS 121250Z 30004KT M04/M10 A3037 RMK A01 T10411096  RH  065%=      5-min Rain = 0
KSVS 121255Z 30003KT M04/M09 A3037 RMK A01 T10411094  RH  067%=      5-min Rain = 0
KSVS 121300Z 29004KT M04/M10 A3037 RMK A01 T10441097  RH  066%=      5-min Rain = 0
KSVS 121305Z 28005KT M05/M10 A3038 RMK A01 T10511101  RH  068%=      5-min Rain = 0
KSVS 121310Z 29004KT M05/M10 A3038 RMK A01 T10521097  RH  070%=      5-min Rain = 0
KSVS 121315Z 30003KT M05/M09 A3037 RMK A01 T10491094  RH  070%=      5-min Rain = 0
KSVS 121320Z 29003KT M05/M09 A3038 RMK A01 T10461092  RH  070%=      5-min Rain = 0
KSVS 121325Z 29003KT M04/M09 A3038 RMK A01 T10421089  RH  070%=      5-min Rain = 0
KSVS 121330Z 29002KT M04/M08 A3038 RMK A01 T10391082  RH  072%=      5-min Rain = 0
KSVS 121335Z 28003KT M03/M07 A3038 RMK A01 T10341074  RH  074%=      5-min Rain = 0
KSVS 121340Z 28003KT M03/M07 A3038 RMK A01 T10301072  RH  072%=      5-min Rain = 0
KSVS 121345Z 28003KT M03/M07 A3038 RMK A01 T10291074  RH  071%=      5-min Rain = 0
KSVS 121350Z 28003KT M03/M08 A3038 RMK A01 T10291076  RH  070%=      5-min Rain = 0
KSVS 121355Z 28002KT M03/M08 A3038 RMK A01 T10271076  RH  069%=      5-min Rain = 0
KSVS 121400Z 27003KT M02/M07 A3039 RMK A01 T10241069  RH  071%=      5-min Rain = 0
KSVS 121405Z 26003KT M01/M06 A3039 RMK A01 T10131061  RH  070%=      5-min Rain = 0
KSVS 121410Z 26003KT M00/M06 A3039 RMK A01 T10011055  RH  067%=      5-min Rain = 0
KSVS 121415Z 25003KT 01/M05 A3039 RMK A01 T00111050  RH  064%=      5-min Rain = 0
KSVS 121420Z 27002KT 02/M06 A3039 RMK A01 T00171055  RH  059%=      5-min Rain = 0
KSVS 121425Z 28002KT 03/M05 A3039 RMK A01 T00271050  RH  057%=      5-min Rain = 0
KSVS 121430Z 27002KT 04/M05 A3039 RMK A01 T00351046  RH  056%=      5-min Rain = 0
KSVS 121435Z 25002KT 04/M05 A3039 RMK A01 T00411045  RH  054%=      5-min Rain = 0
KSVS 121440Z 22003KT 04/M04 A3039 RMK A01 T00431044  RH  053%=      5-min Rain = 0
KSVS 121445Z 22003KT 05/M04 A3039 RMK A01 T00451043  RH  053%=      5-min Rain = 0
KSVS 121450Z 23003KT 05/M04 A3039 RMK A01 T00491041  RH  052%=      5-min Rain = 0
KSVS 121455Z 22004KT 05/M04 A3039 RMK A01 T00521040  RH  052%=      5-min Rain = 0
KSVS 121500Z 23004KT 05/M04 A3039 RMK A01 T00541039  RH  051%=      5-min Rain = 0
KSVS 121505Z 25003KT 06/M04 A3039 RMK A01 T00581040  RH  050%=      5-min Rain = 0
KSVS 121510Z 23003KT 06/M04 A3039 RMK A01 T00601040  RH  049%=      5-min Rain = 0
KSVS 121515Z 21003KT 06/M04 A3039 RMK A01 T00641041  RH  047%=      5-min Rain = 0
KSVS 121520Z 21002KT 06/M04 A304 RMK A01 T00641042  RH  047%=      5-min Rain = 0
KSVS 121525Z 23003KT 07/M04 A304 RMK A01 T00701041  RH  045%=      5-min Rain = 0
KSVS 121530Z 18002KT 07/M04 A304 RMK A01 T00721042  RH  045%=      5-min Rain = 0
KSVS 121535Z 21002KT 07/M04 A304 RMK A01 T00741042  RH  044%=      5-min Rain = 0
KSVS 121540Z 20003KT 08/M04 A304 RMK A01 T00751042  RH  044%=      5-min Rain = 0
KSVS 121545Z 20002KT 08/M04 A304 RMK A01 T00791042  RH  042%=      5-min Rain = 0
KSVS 121550Z 16003KT 08/M04 A304 RMK A01 T00791044  RH  042%=      5-min Rain = 0
KSVS 121555Z 25002KT 08/M04 A304 RMK A01 T00831042  RH  041%=      5-min Rain = 0
KSVS 121600Z 16002KT 09/M04 A304 RMK A01 T00861042  RH  040%=      5-min Rain = 0
KSVS 121605Z 18003KT 08/M04 A304 RMK A01 T00831044  RH  040%=      5-min Rain = 0
KSVS 121610Z 17002KT 08/M04 A304 RMK A01 T00841043  RH  041%=      5-min Rain = 0
KSVS 121615Z 15003KT 09/M04 A3039 RMK A01 T00901042  RH  039%=      5-min Rain = 0
KSVS 121620Z 14002KT 09/M04 A3039 RMK A01 T00871044  RH  039%=      5-min Rain = 0
KSVS 121625Z 32002KT 09/M04 A3039 RMK A01 T00931042  RH  039%=      5-min Rain = 0
KSVS 121630Z 06003KT 10/M04 A3039 RMK A01 T00961043  RH  038%=      5-min Rain = 0
KSVS 121635Z 10003KT 09/M04 A3039 RMK A01 T00941042  RH  038%=      5-min Rain = 0
KSVS 121640Z 11004KT 10/M04 A3039 RMK A01 T00951042  RH  038%=      5-min Rain = 0
KSVS 121645Z 08005KT 09/M04 A3039 RMK A01 T00931043  RH  038%=      5-min Rain = 0
KSVS 121650Z 07002KT 10/M04 A3039 RMK A01 T00971042  RH  038%=      5-min Rain = 0
KSVS 121655Z 01001KT 10/M04 A3039 RMK A01 T00961042  RH  038%=      5-min Rain = 0
KSVS 121700Z 14005KT 10/M04 A3038 RMK A01 T01031043  RH  036%=      5-min Rain = 0
KSVS 121705Z 10005KT 10/M04 A3038 RMK A01 T01021043  RH  036%=      5-min Rain = 0
KSVS 121710Z 04002KT 11/M04 A3038 RMK A01 T01051043  RH  035%=      5-min Rain = 0
KSVS 121715Z 14005KT 11/M04 A3037 RMK A01 T01071044  RH  034%=      5-min Rain = 0
KSVS 121720Z 13005KT 11/M05 A3037 RMK A01 T01061046  RH  034%=      5-min Rain = 0
KSVS 121725Z 09004KT 10/M05 A3037 RMK A01 T01041046  RH  035%=      5-min Rain = 0
KSVS 121730Z 12005KT 11/M05 A3037 RMK A01 T01091045  RH  034%=      5-min Rain = 0
KSVS 121735Z 13004KT 11/M05 A3036 RMK A01 T01081048  RH  033%=      5-min Rain = 0
KSVS 121740Z 08004KT 11/M05 A3036 RMK A01 T01101046  RH  033%=      5-min Rain = 0
KSVS 121745Z 08005KT 11/M05 A3036 RMK A01 T01131048  RH  032%=      5-min Rain = 0
KSVS 121750Z 11004G10KT 11/M05 A3035 RMK A01 T01111048  RH  033%=      5-min Rain = 0
KSVS 121755Z 14005KT 11/M05 A3035 RMK A01 T01131049  RH  032%=      5-min Rain = 0
KSVS 121800Z 13005KT 11/M05 A3035 RMK A01 T01131052  RH  031%=      5-min Rain = 0
KSVS 121805Z 35003KT 11/M05 A3035 RMK A01 T01091052  RH  032%=      5-min Rain = 0
KSVS 121810Z 12004KT 11/M05 A3035 RMK A01 T01141051  RH  031%=      5-min Rain = 0
KSVS 121815Z 14004KT 12/M05 A3035 RMK A01 T01221051  RH  030%=      5-min Rain = 0
KSVS 121820Z 16005KT 12/M05 A3035 RMK A01 T01201054  RH  029%=      5-min Rain = 0
KSVS 121825Z 20002KT 11/M05 A3034 RMK A01 T01141054  RH  030%=      5-min Rain = 0
KSVS 121830Z 16004KT 12/M05 A3034 RMK A01 T01151053  RH  030%=      5-min Rain = 0
KSVS 121835Z 14006G12KT 12/M05 A3034 RMK A01 T01191050  RH  030%=      5-min Rain = 0
KSVS 121840Z 13006KT 12/M05 A3034 RMK A01 T01201051  RH  030%=      5-min Rain = 0
KSVS 121845Z 12005G10KT 12/M05 A3033 RMK A01 T01241048  RH  030%=      5-min Rain = 0
KSVS 121850Z 19002KT 12/M05 A3033 RMK A01 T01191050  RH  031%=      5-min Rain = 0
KSVS 121855Z 15006KT 12/M05 A3033 RMK A01 T01221046  RH  031%=      5-min Rain = 0
KSVS 121900Z 12004KT 12/M05 A3033 RMK A01 T01231051  RH  029%=      5-min Rain = 0
KSVS 121905Z 16004G9KT 13/M05 A3032 RMK A01 T01321047  RH  028%=      5-min Rain = 0
KSVS 121910Z 23004KT 14/M05 A3032 RMK A01 T01351048  RH  028%=      5-min Rain = 0
KSVS 121915Z 06005G10KT 13/M05 A3031 RMK A01 T01311046  RH  029%=      5-min Rain = 0
KSVS 121920Z 21008G16KT 13/M05 A3031 RMK A01 T01341049  RH  028%=      5-min Rain = 0
KSVS 121925Z 23005G10KT 13/M05 A3031 RMK A01 T01331051  RH  028%=      5-min Rain = 0
KSVS 121930Z 17006KT 14/M05 A303 RMK A01 T01381051  RH  027%=      5-min Rain = 0
KSVS 121935Z 19005G10KT 13/M06 A303 RMK A01 T01341055  RH  027%=      5-min Rain = 0
KSVS 121940Z 18006G11KT 14/M06 A303 RMK A01 T01401055  RH  025%=      5-min Rain = 0
KSVS 121945Z 18003KT 13/M06 A303 RMK A01 T01321058  RH  026%=      5-min Rain = 0
KSVS 121950Z 24001KT 13/M06 A3029 RMK A01 T01341055  RH  026%=      5-min Rain = 0
KSVS 121955Z 17003G8KT 14/M06 A3029 RMK A01 T01411055  RH  025%=      5-min Rain = 0
KSVS 122000Z 14005KT 14/M05 A3029 RMK A01 T01371053  RH  026%=      5-min Rain = 0
KSVS 122005Z 16005G12KT 14/M05 A3028 RMK A01 T01391053  RH  026%=      5-min Rain = 0
KSVS 122010Z 14002KT 14/M05 A3028 RMK A01 T01421052  RH  026%=      5-min Rain = 0
KSVS 122015Z 09002KT 14/M05 A3028 RMK A01 T01381054  RH  026%=      5-min Rain = 0
KSVS 122020Z 32005G10KT 14/M06 A3028 RMK A01 T01421058  RH  025%=      5-min Rain = 0
KSVS 122025Z 32003G10KT 14/M06 A3027 RMK A01 T01391064  RH  024%=      5-min Rain = 0
KSVS 122030Z 03002KT 14/M06 A3027 RMK A01 T01421063  RH  024%=      5-min Rain = 0
KSVS 122035Z 23004G9KT 15/M06 A3027 RMK A01 T01451063  RH  023%=      5-min Rain = 0
KSVS 122040Z 19006KT 14/M07 A3027 RMK A01 T01441065  RH  023%=      5-min Rain = 0
KSVS 122045Z 20005KT 15/M07 A3026 RMK A01 T01481065  RH  022%=      5-min Rain = 0
KSVS 122050Z 22006KT 15/M07 A3026 RMK A01 T01481066  RH  022%=      5-min Rain = 0
KSVS 122055Z 21004KT 14/M07 A3026 RMK A01 T01431067  RH  023%=      5-min Rain = 0
KSVS 122100Z 19001KT 15/M07 A3026 RMK A01 T01461065  RH  023%=      5-min Rain = 0
KSVS 122105Z 27005KT 15/M07 A3025 RMK A01 T01491066  RH  022%=      5-min Rain = 0
KSVS 122110Z 29005KT 15/M07 A3025 RMK A01 T01491066  RH  022%=      5-min Rain = 0
KSVS 122115Z 30002KT 14/M07 A3025 RMK A01 T01441065  RH  023%=      5-min Rain = 0
KSVS 122120Z 24005KT 15/M06 A3024 RMK A01 T01491064  RH  022%=      5-min Rain = 0
KSVS 122125Z 25005KT 15/M07 A3024 RMK A01 T01461066  RH  023%=      5-min Rain = 0
KSVS 122130Z 25004KT 14/M07 A3024 RMK A01 T01441068  RH  022%=      5-min Rain = 0
KSVS 122135Z 20004G10KT 15/M07 A3023 RMK A01 T01461067  RH  022%=      5-min Rain = 0
KSVS 122140Z 17003G8KT 15/M07 A3023 RMK A01 T01461070  RH  022%=      5-min Rain = 0
KSVS 122145Z 18005KT 15/M07 A3023 RMK A01 T01491070  RH  021%=      5-min Rain = 0
KSVS 122150Z 19007KT 15/M06 A3022 RMK A01 T01491064  RH  022%=      5-min Rain = 0
KSVS 122155Z 15005G10KT 15/M06 A3022 RMK A01 T01471057  RH  024%=      5-min Rain = 0
KSVS 122200Z 15008KT 15/M06 A3022 RMK A01 T01521056  RH  023%=      5-min Rain = 0
KSVS 122205Z 14004G9KT 15/M06 A3022 RMK A01 T01481058  RH  024%=      5-min Rain = 0
KSVS 122210Z 11005KT 15/M06 A3022 RMK A01 T01471059  RH  024%=      5-min Rain = 0
KSVS 122215Z 08005KT 15/M06 A3022 RMK A01 T01471057  RH  024%=      5-min Rain = 0
KSVS 122220Z 12003G10KT 14/M06 A3022 RMK A01 T01421057  RH  025%=      5-min Rain = 0
KSVS 122225Z 10005G11KT 14/M06 A3021 RMK A01 T01441056  RH  025%=      5-min Rain = 0
KSVS 122230Z 11006KT 15/M06 A3021 RMK A01 T01481056  RH  024%=      5-min Rain = 0
KSVS 122235Z 18005KT 15/M06 A3021 RMK A01 T01501062  RH  023%=      5-min Rain = 0
KSVS 122240Z 21007KT 15/M07 A3021 RMK A01 T01481071  RH  021%=      5-min Rain = 0
KSVS 122245Z 17007G12KT 15/M07 A3021 RMK A01 T01471070  RH  022%=      5-min Rain = 0
KSVS 122250Z 16002KT 15/M07 A3021 RMK A01 T01491065  RH  022%=      5-min Rain = 0
KSVS 122255Z 16009KT 15/M06 A302 RMK A01 T01501062  RH  023%=      5-min Rain = 0
KSVS 122300Z 16008KT 14/M06 A302 RMK A01 T01441062  RH  024%=      5-min Rain = 0
KSVS 122305Z 16006KT 15/M06 A302 RMK A01 T01461062  RH  023%=      5-min Rain = 0
KSVS 122310Z 15008KT 14/M06 A302 RMK A01 T01441062  RH  024%=      5-min Rain = 0
KSVS 122315Z 15008KT 14/M06 A302 RMK A01 T01441062  RH  024%=      5-min Rain = 0
KSVS 122320Z 15009KT 14/M06 A302 RMK A01 T01411063  RH  024%=      5-min Rain = 0
KSVS 122325Z 14008KT 14/M06 A302 RMK A01 T01391063  RH  024%=      5-min Rain = 0
KSVS 122330Z 13010KT 14/M06 A302 RMK A01 T01351064  RH  025%=      5-min Rain = 0
KSVS 122335Z 14009KT 14/M06 A3019 RMK A01 T01351063  RH  025%=      5-min Rain = 0
KSVS 122340Z 13009KT 14/M06 A3019 RMK A01 T01351063  RH  025%=      5-min Rain = 0
KSVS 122345Z 13010KT 13/M06 A3019 RMK A01 T01331064  RH  025%=      5-min Rain = 0
KSVS 122350Z 14010KT 13/M07 A3019 RMK A01 T01311065  RH  025%=      5-min Rain = 0
KSVS 122355Z 12009KT 13/M07 A3019 RMK A01 T01291065  RH  025%=      5-min Rain = 0
KSVS 130000Z 13010KT 13/M07 A302 RMK A01 T01281066  RH  025%=      5-min Rain = 0
KSVS 130005Z 12009KT 12/M07 A302 RMK A01 T01241066  RH  026%=      5-min Rain = 0
KSVS 130010Z 13009KT 12/M07 A302 RMK A01 T01171067  RH  027%=      5-min Rain = 0
KSVS 130015Z 13009KT 11/M07 A302 RMK A01 T01141067  RH  028%=      5-min Rain = 0
KSVS 130020Z 13008KT 11/M07 A302 RMK A01 T01091067  RH  028%=      5-min Rain = 0
KSVS 130025Z 13009KT 11/M07 A302 RMK A01 T01051067  RH  029%=      5-min Rain = 0
KSVS 130030Z 12009KT 10/M07 A3021 RMK A01 T01041067  RH  029%=      5-min Rain = 0
KSVS 130035Z 12008KT 10/M07 A3021 RMK A01 T01021067  RH  030%=      5-min Rain = 0
KSVS 130040Z 12007KT 10/M07 A3021 RMK A01 T00981067  RH  030%=      5-min Rain = 0
KSVS 130045Z 12007KT 09/M07 A3021 RMK A01 T00901069  RH  032%=      5-min Rain = 0
KSVS 130050Z 12007KT 08/M07 A3021 RMK A01 T00831068  RH  034%=      5-min Rain = 0
KSVS 130055Z 12007KT 08/M07 A3021 RMK A01 T00781068  RH  035%=      5-min Rain = 0
KSVS 130100Z 11008KT 07/M07 A3021 RMK A01 T00741069  RH  036%=      5-min Rain = 0
KSVS 130105Z 12007KT 07/M07 A3021 RMK A01 T00701070  RH  036%=      5-min Rain = 0
KSVS 130110Z 12008KT 06/M07 A3021 RMK A01 T00631071  RH  038%=      5-min Rain = 0
KSVS 130115Z 12008KT 06/M07 A3021 RMK A01 T00591070  RH  039%=      5-min Rain = 0
KSVS 130120Z 13008KT 06/M07 A3022 RMK A01 T00561070  RH  040%=      5-min Rain = 0
KSVS 130125Z 13007KT 05/M07 A3022 RMK A01 T00531070  RH  041%=      5-min Rain = 0
KSVS 130130Z 13007KT 05/M07 A3022 RMK A01 T00521070  RH  041%=      5-min Rain = 0
KSVS 130135Z 13007KT 05/M07 A3022 RMK A01 T00511070  RH  041%=      5-min Rain = 0
KSVS 130140Z 13008KT 05/M07 A3022 RMK A01 T00521068  RH  042%=      5-min Rain = 0
KSVS 130145Z 13008KT 06/M06 A3022 RMK A01 T00631062  RH  040%=      5-min Rain = 0
KSVS 130150Z 13008KT 07/M06 A3023 RMK A01 T00741060  RH  038%=      5-min Rain = 0
KSVS 130155Z 12008KT 08/M06 A3023 RMK A01 T00751062  RH  037%=      5-min Rain = 0
KSVS 130200Z 12009KT 08/M06 A3023 RMK A01 T00751061  RH  037%=      5-min Rain = 0
KSVS 130205Z 13009KT 08/M06 A3023 RMK A01 T00781061  RH  037%=      5-min Rain = 0
KSVS 130210Z 13009KT 08/M06 A3023 RMK A01 T00801061  RH  036%=      5-min Rain = 0
KSVS 130215Z 13009KT 08/M06 A3023 RMK A01 T00791061  RH  036%=      5-min Rain = 0
KSVS 130220Z 13009KT 08/M06 A3023 RMK A01 T00771062  RH  037%=      5-min Rain = 0
KSVS 130225Z 13009KT 07/M06 A3024 RMK A01 T00741062  RH  037%=      5-min Rain = 0
KSVS 130230Z 13009KT 07/M06 A3024 RMK A01 T00721062  RH  038%=      5-min Rain = 0
KSVS 130235Z 13009KT 07/M06 A3024 RMK A01 T00721061  RH  038%=      5-min Rain = 0
KSVS 130240Z 13009KT 07/M06 A3024 RMK A01 T00711061  RH  038%=      5-min Rain = 0
KSVS 130245Z 13010KT 07/M06 A3024 RMK A01 T00701062  RH  039%=      5-min Rain = 0
KSVS 130250Z 13010KT 07/M06 A3024 RMK A01 T00691063  RH  039%=      5-min Rain = 0
KSVS 130255Z 13009KT 07/M06 A3024 RMK A01 T00661063  RH  039%=      5-min Rain = 0
KSVS 130300Z 13009KT 07/M07 A3024 RMK A01 T00651065  RH  039%=      5-min Rain = 0
KSVS 130305Z 14009KT 06/M07 A3024 RMK A01 T00641065  RH  039%=      5-min Rain = 0
KSVS 130310Z 13008KT 06/M07 A3023 RMK A01 T00631065  RH  039%=      5-min Rain = 0
KSVS 130315Z 13009KT 06/M07 A3024 RMK A01 T00621066  RH  039%=      5-min Rain = 0
KSVS 130320Z 13008KT 06/M07 A3024 RMK A01 T00611067  RH  040%=      5-min Rain = 0
KSVS 130325Z 13008KT 06/M07 A3024 RMK A01 T00581068  RH  040%=      5-min Rain = 0
KSVS 130330Z 14008KT 05/M07 A3024 RMK A01 T00531070  RH  041%=      5-min Rain = 0
KSVS 130335Z 14009KT 05/M07 A3024 RMK A01 T00511070  RH  041%=      5-min Rain = 0
KSVS 130340Z 14008KT 05/M07 A3024 RMK A01 T00511070  RH  041%=      5-min Rain = 0
KSVS 130345Z 14008KT 05/M07 A3024 RMK A01 T00491071  RH  041%=      5-min Rain = 0
KSVS 130350Z 14009KT 05/M07 A3024 RMK A01 T00481071  RH  042%=      5-min Rain = 0
KSVS 130355Z 13009KT 05/M07 A3024 RMK A01 T00501070  RH  042%=      5-min Rain = 0
KSVS 130400Z 14008KT 05/M07 A3024 RMK A01 T00531070  RH  041%=      5-min Rain = 0
KSVS 130405Z 14008KT 05/M07 A3024 RMK A01 T00511070  RH  041%=      5-min Rain = 0
KSVS 130410Z 14008KT 05/M07 A3024 RMK A01 T00491071  RH  042%=      5-min Rain = 0
KSVS 130415Z 13008KT 05/M07 A3024 RMK A01 T00461072  RH  042%=      5-min Rain = 0
KSVS 130420Z 12008KT 04/M07 A3024 RMK A01 T00411072  RH  044%=      5-min Rain = 0
KSVS 130425Z 12009KT 04/M07 A3024 RMK A01 T00401070  RH  045%=      5-min Rain = 0
KSVS 130430Z 12008KT 04/M07 A3024 RMK A01 T00401070  RH  045%=      5-min Rain = 0
KSVS 130435Z 12008KT 04/M07 A3024 RMK A01 T00361071  RH  045%=      5-min Rain = 0
KSVS 130440Z 12008KT 03/M07 A3024 RMK A01 T00331071  RH  046%=      5-min Rain = 0
KSVS 130445Z 13008KT 03/M07 A3024 RMK A01 T00331070  RH  047%=      5-min Rain = 0
KSVS 130450Z 13008KT 04/M07 A3024 RMK A01 T00381069  RH  046%=      5-min Rain = 0
KSVS 130455Z 13008KT 04/M07 A3024 RMK A01 T00391070  RH  045%=      5-min Rain = 0

Page generated in 0.1453 seconds.